createdAt,value
2018-07-01T00:02:24.569Z,17.04
2018-07-01T00:04:51.589Z,17.00
2018-07-01T00:07:18.669Z,16.95
2018-07-01T00:09:45.681Z,16.93
2018-07-01T00:12:12.674Z,16.86
2018-07-01T00:14:39.773Z,16.84
2018-07-01T00:17:06.770Z,16.79
2018-07-01T00:19:33.793Z,16.74
2018-07-01T00:22:00.799Z,16.72
2018-07-01T00:24:27.790Z,16.70
2018-07-01T00:26:54.947Z,16.66
2018-07-01T00:29:21.961Z,16.63
2018-07-01T00:31:48.965Z,16.61
2018-07-01T00:34:15.961Z,16.56
2018-07-01T00:36:42.978Z,16.51
2018-07-01T00:39:11.384Z,16.48
2018-07-01T00:41:38.365Z,16.46
2018-07-01T00:44:06.025Z,16.42
2018-07-01T00:46:33.237Z,16.38
2018-07-01T00:49:00.206Z,16.35
2018-07-01T00:51:27.241Z,16.32
2018-07-01T00:53:54.221Z,16.30
2018-07-01T00:56:21.213Z,16.27
2018-07-01T00:58:48.190Z,16.22
2018-07-01T01:01:15.169Z,16.21
2018-07-01T01:03:42.128Z,16.19
2018-07-01T01:06:09.137Z,16.20
2018-07-01T01:08:36.229Z,16.20
2018-07-01T01:11:03.291Z,16.20
2018-07-01T01:13:30.290Z,16.20
2018-07-01T01:15:57.298Z,16.18
2018-07-01T01:18:24.276Z,16.16
2018-07-01T01:20:51.378Z,16.16
2018-07-01T01:23:18.371Z,16.12
2018-07-01T01:25:45.373Z,16.10
2018-07-01T01:28:12.357Z,16.08
2018-07-01T01:30:39.357Z,16.02
2018-07-01T01:33:06.369Z,15.99
2018-07-01T01:35:33.478Z,15.95
2018-07-01T01:38:00.573Z,15.92
2018-07-01T01:40:31.422Z,15.87
2018-07-01T01:43:08.885Z,15.83
2018-07-01T01:45:41.630Z,15.82
2018-07-01T01:48:14.034Z,15.79
2018-07-01T01:50:45.815Z,15.76
2018-07-01T01:53:48.681Z,15.73
2018-07-01T01:56:27.200Z,15.70
2018-07-01T02:01:01.639Z,15.65
2018-07-01T02:03:31.865Z,15.58
2018-07-01T02:06:05.593Z,15.55
2018-07-01T02:08:35.673Z,15.52
2018-07-01T02:11:02.733Z,15.50
2018-07-01T02:13:30.788Z,15.47
2018-07-01T02:16:04.296Z,15.45
2018-07-01T02:18:31.317Z,15.41
2018-07-01T02:20:58.364Z,15.41
2018-07-01T02:23:32.733Z,15.36
2018-07-01T02:25:59.788Z,15.35
2018-07-01T02:28:26.855Z,15.35
2018-07-01T02:30:53.881Z,15.34
2018-07-01T02:33:20.854Z,15.32
2018-07-01T02:35:47.843Z,15.29
2018-07-01T02:38:14.874Z,15.29
2018-07-01T02:40:41.995Z,15.28
2018-07-01T02:43:09.013Z,15.29
2018-07-01T02:45:35.986Z,15.27
2018-07-01T02:48:02.994Z,15.25
2018-07-01T02:50:30.205Z,15.24
2018-07-01T02:52:57.200Z,15.24
2018-07-01T02:55:24.425Z,15.21
2018-07-01T02:57:51.763Z,15.17
2018-07-01T03:00:18.762Z,15.14
2018-07-01T03:02:45.796Z,15.13
2018-07-01T03:05:12.769Z,15.13
2018-07-01T03:07:39.821Z,15.10
2018-07-01T03:10:06.809Z,15.09
2018-07-01T03:12:33.829Z,15.08
2018-07-01T03:15:00.806Z,15.09
2018-07-01T03:17:27.938Z,15.07
2018-07-01T03:19:54.933Z,15.04
2018-07-01T03:22:21.929Z,15.01
2018-07-01T03:24:48.925Z,15.00
2018-07-01T03:27:15.972Z,15.01
2018-07-01T03:29:42.960Z,15.01
2018-07-01T03:32:10.233Z,15.02
2018-07-01T03:34:37.400Z,15.02
2018-07-01T03:37:04.592Z,15.02
2018-07-01T03:39:31.597Z,15.03
2018-07-01T03:41:58.613Z,15.02
2018-07-01T03:44:25.604Z,15.02
2018-07-01T03:46:52.601Z,15.03
2018-07-01T03:49:19.609Z,15.03
2018-07-01T03:51:46.618Z,15.05
2018-07-01T03:54:13.649Z,15.05
2018-07-01T03:56:40.626Z,15.06
2018-07-01T03:59:07.624Z,15.05
2018-07-01T04:01:34.621Z,15.09
2018-07-01T04:04:01.686Z,15.11
2018-07-01T04:06:28.817Z,15.13
2018-07-01T04:08:55.814Z,15.13
2018-07-01T04:11:22.793Z,15.15
2018-07-01T04:13:49.785Z,15.19
2018-07-01T04:16:16.853Z,15.23
2018-07-01T04:18:44.552Z,15.24
2018-07-01T04:21:11.665Z,15.27
2018-07-01T04:23:38.694Z,15.31
2018-07-01T04:26:05.686Z,15.35
2018-07-01T04:28:32.690Z,15.38
2018-07-01T04:30:59.688Z,15.39
2018-07-01T04:33:26.868Z,15.41
2018-07-01T04:35:53.873Z,15.43
2018-07-01T04:38:20.881Z,15.46
2018-07-01T04:40:47.888Z,15.60
2018-07-01T04:43:14.894Z,15.84
2018-07-01T04:45:41.873Z,16.08
2018-07-01T04:48:08.881Z,16.09
2018-07-01T04:50:35.921Z,16.05
2018-07-01T04:53:02.929Z,16.05
2018-07-01T04:55:29.926Z,16.03
2018-07-01T04:57:56.937Z,15.97
2018-07-01T05:00:23.935Z,15.96
2018-07-01T05:02:50.929Z,15.95
2018-07-01T05:05:17.931Z,15.94
2018-07-01T05:07:44.900Z,15.94
2018-07-01T05:10:11.866Z,15.96
2018-07-01T05:12:38.877Z,16.00
2018-07-01T05:15:06.110Z,16.05
2018-07-01T05:17:33.093Z,16.09
2018-07-01T05:20:00.121Z,16.13
2018-07-01T05:22:27.478Z,16.17
2018-07-01T05:24:54.489Z,16.23
2018-07-01T05:27:21.478Z,16.31
2018-07-01T05:29:48.468Z,16.32
2018-07-01T05:32:15.450Z,16.35
2018-07-01T05:34:42.449Z,16.36
2018-07-01T05:37:09.597Z,16.36
2018-07-01T05:39:36.585Z,16.36
2018-07-01T05:42:03.589Z,16.37
2018-07-01T05:44:30.586Z,16.38
2018-07-01T05:46:57.578Z,16.41
2018-07-01T05:49:25.006Z,16.45
2018-07-01T05:51:52.001Z,16.48
2018-07-01T05:54:19.041Z,16.53
2018-07-01T05:56:46.037Z,16.58
2018-07-01T05:59:13.040Z,16.64
2018-07-01T06:01:40.047Z,16.71
2018-07-01T06:04:07.109Z,16.71
2018-07-01T06:06:34.121Z,16.64
2018-07-01T06:09:01.090Z,16.64
2018-07-01T06:11:28.105Z,16.69
2018-07-01T06:13:55.096Z,16.79
2018-07-01T06:16:22.162Z,16.86
2018-07-01T06:18:49.241Z,16.93
2018-07-01T06:21:16.301Z,16.99
2018-07-01T06:23:43.394Z,17.04
2018-07-01T06:26:10.477Z,17.09
2018-07-01T06:28:37.449Z,17.15
2018-07-01T06:31:04.665Z,17.21
2018-07-01T06:33:31.721Z,17.28
2018-07-01T06:35:58.905Z,17.36
2018-07-01T06:38:25.881Z,17.42
2018-07-01T06:40:52.893Z,17.47
2018-07-01T06:43:19.869Z,17.56
2018-07-01T06:45:46.905Z,17.64
2018-07-01T06:48:13.897Z,17.72
2018-07-01T06:50:40.918Z,17.77
2018-07-01T06:53:08.117Z,17.84
2018-07-01T06:55:35.117Z,17.90
2018-07-01T06:58:02.330Z,18.00
2018-07-01T07:00:29.405Z,18.11
2018-07-01T07:02:56.714Z,18.21
2018-07-01T07:05:23.737Z,18.29
2018-07-01T07:07:50.733Z,18.36
2018-07-01T07:10:17.725Z,18.41
2018-07-01T07:12:44.777Z,18.44
2018-07-01T07:15:11.957Z,18.43
2018-07-01T07:17:39.114Z,18.41
2018-07-01T07:20:06.116Z,18.45
2018-07-01T07:22:33.085Z,18.47
2018-07-01T07:25:00.087Z,18.52
2018-07-01T07:27:27.068Z,18.56
2018-07-01T07:29:54.081Z,18.62
2018-07-01T07:32:21.078Z,18.65
2018-07-01T07:34:48.077Z,18.75
2018-07-01T07:37:15.075Z,18.80
2018-07-01T07:39:42.061Z,18.79
2018-07-01T07:42:09.077Z,18.81
2018-07-01T07:44:36.086Z,18.97
2018-07-01T07:47:03.165Z,19.17
2018-07-01T07:49:30.137Z,19.35
2018-07-01T07:51:57.153Z,19.45
2018-07-01T07:54:24.151Z,19.49
2018-07-01T07:56:51.161Z,19.59
2018-07-01T07:59:18.180Z,19.66
2018-07-01T08:01:45.577Z,19.72
2018-07-01T08:04:12.562Z,19.76
2018-07-01T08:06:39.533Z,19.71
2018-07-01T08:09:07.421Z,19.77
2018-07-01T08:11:34.433Z,19.85
2018-07-01T08:14:01.455Z,19.91
2018-07-01T08:16:28.463Z,20.01
2018-07-01T08:18:55.450Z,20.08
2018-07-01T08:21:22.569Z,20.13
2018-07-01T08:23:49.574Z,20.18
2018-07-01T08:26:16.905Z,20.23
2018-07-01T08:28:43.882Z,20.26
2018-07-01T08:31:10.905Z,20.32
2018-07-01T08:33:37.900Z,20.39
2018-07-01T08:36:04.910Z,20.47
2018-07-01T08:38:31.937Z,20.55
2018-07-01T08:40:58.968Z,20.60
2018-07-01T08:43:25.997Z,20.66
2018-07-01T08:45:52.973Z,20.76
2018-07-01T08:48:19.998Z,20.80
2018-07-01T08:50:47.006Z,20.85
2018-07-01T08:53:14.006Z,20.93
2018-07-01T08:55:41.052Z,20.97
2018-07-01T08:58:08.061Z,21.00
2018-07-01T09:00:35.046Z,21.00
2018-07-01T09:03:02.092Z,21.05
2018-07-01T09:05:29.089Z,21.04
2018-07-01T09:07:56.081Z,21.06
2018-07-01T09:10:23.057Z,21.10
2018-07-01T09:12:50.053Z,21.13
2018-07-01T09:15:17.077Z,21.15
2018-07-01T09:17:44.072Z,21.28
2018-07-01T09:20:11.073Z,21.32
2018-07-01T09:22:38.049Z,21.39
2018-07-01T09:25:05.297Z,21.49
2018-07-01T09:27:32.323Z,21.55
2018-07-01T09:30:00.107Z,21.60
2018-07-01T09:32:27.545Z,21.63
2018-07-01T09:34:54.917Z,21.70
2018-07-01T09:37:21.989Z,21.81
2018-07-01T09:39:49.064Z,21.88
2018-07-01T09:42:16.054Z,21.90
2018-07-01T09:44:43.069Z,21.80
2018-07-01T09:47:10.074Z,21.83
2018-07-01T09:49:37.098Z,21.88
2018-07-01T09:52:04.217Z,21.97
2018-07-01T09:54:31.218Z,22.02
2018-07-01T09:56:58.214Z,22.09
2018-07-01T09:59:25.246Z,22.15
2018-07-01T10:01:52.194Z,22.14
2018-07-01T10:04:19.197Z,22.25
2018-07-01T10:06:46.162Z,22.32
2018-07-01T10:09:13.213Z,22.36
2018-07-01T10:11:40.186Z,22.43
2018-07-01T10:14:07.988Z,22.54
2018-07-01T10:16:34.985Z,22.65
2018-07-01T10:19:01.981Z,22.63
2018-07-01T10:21:29.433Z,22.67
2018-07-01T10:23:56.449Z,22.75
2018-07-01T10:26:23.520Z,22.84
2018-07-01T10:28:59.805Z,22.86
2018-07-01T10:31:26.796Z,22.87
2018-07-01T10:33:53.785Z,22.94
2018-07-01T10:36:20.742Z,22.99
2018-07-01T10:38:47.735Z,23.11
2018-07-01T10:41:14.726Z,23.14
2018-07-01T10:43:41.678Z,23.08
2018-07-01T10:46:08.748Z,23.12
2018-07-01T10:48:35.810Z,23.13
2018-07-01T10:51:02.817Z,22.98
2018-07-01T10:53:29.974Z,23.02
2018-07-01T10:55:56.958Z,23.15
2018-07-01T10:58:23.944Z,23.22
2018-07-01T11:00:50.929Z,23.23
2018-07-01T11:03:17.921Z,23.32
2018-07-01T11:05:44.897Z,23.46
2018-07-01T11:08:12.025Z,23.51
2018-07-01T11:10:39.005Z,23.56
2018-07-01T11:13:05.969Z,23.60
2018-07-01T11:15:33.021Z,23.63
2018-07-01T11:17:59.985Z,23.65
2018-07-01T11:20:27.054Z,23.78
2018-07-01T11:22:53.977Z,23.90
2018-07-01T11:25:20.966Z,23.88
2018-07-01T11:27:48.030Z,23.92
2018-07-01T11:30:15.053Z,23.92
2018-07-01T11:32:42.109Z,24.01
2018-07-01T11:35:09.126Z,24.03
2018-07-01T11:37:36.141Z,24.03
2018-07-01T11:40:03.548Z,24.08
2018-07-01T11:42:30.553Z,24.17
2018-07-01T11:44:57.541Z,24.18
2018-07-01T11:47:24.590Z,24.26
2018-07-01T11:49:51.569Z,24.30
2018-07-01T11:52:18.612Z,24.33
2018-07-01T11:54:45.600Z,24.40
2018-07-01T11:57:12.599Z,24.50
2018-07-01T11:59:39.605Z,24.50
2018-07-01T12:02:06.681Z,24.55
2018-07-01T12:04:33.661Z,24.62
2018-07-01T12:07:00.676Z,24.45
2018-07-01T12:09:27.713Z,24.32
2018-07-01T12:11:54.753Z,24.11
2018-07-01T12:14:22.014Z,24.27
2018-07-01T12:16:49.004Z,24.46
2018-07-01T12:19:16.158Z,24.62
2018-07-01T12:21:43.205Z,24.70
2018-07-01T12:24:10.232Z,24.74
2018-07-01T12:26:37.577Z,24.78
2018-07-01T12:29:04.762Z,24.80
2018-07-01T12:31:31.837Z,24.85
2018-07-01T12:33:58.953Z,24.70
2018-07-01T12:36:26.105Z,24.66
2018-07-01T12:38:53.105Z,24.66
2018-07-01T12:41:20.101Z,24.58
2018-07-01T12:43:47.081Z,24.58
2018-07-01T12:46:14.097Z,24.70
2018-07-01T12:48:41.155Z,24.71
2018-07-01T12:51:08.149Z,24.78
2018-07-01T12:53:35.128Z,24.85
2018-07-01T12:56:02.138Z,24.84
2018-07-01T12:58:29.229Z,24.76
2018-07-01T13:00:56.227Z,24.83
2018-07-01T13:03:23.185Z,24.95
2018-07-01T13:05:50.213Z,25.06
2018-07-01T13:08:17.215Z,25.17
2018-07-01T13:10:44.213Z,25.23
2018-07-01T13:13:11.201Z,25.26
2018-07-01T13:15:38.177Z,25.27
2018-07-01T13:18:05.606Z,25.34
2018-07-01T13:20:32.609Z,25.30
2018-07-01T13:22:59.709Z,25.15
2018-07-01T13:25:26.731Z,24.68
2018-07-01T13:27:53.753Z,24.55
2018-07-01T13:30:20.749Z,24.67
2018-07-01T13:32:47.716Z,24.95
2018-07-01T13:35:14.737Z,24.94
2018-07-01T13:37:41.970Z,25.06
2018-07-01T13:40:08.965Z,25.17
2018-07-01T13:42:36.010Z,25.16
2018-07-01T13:45:03.386Z,25.13
2018-07-01T13:47:30.370Z,25.22
2018-07-01T13:49:57.357Z,25.08
2018-07-01T13:52:24.376Z,25.07
2018-07-01T13:54:51.445Z,25.08
2018-07-01T13:57:18.484Z,25.05
2018-07-01T13:59:45.450Z,25.13
2018-07-01T14:02:12.497Z,25.17
2018-07-01T14:04:39.473Z,25.16
2018-07-01T14:07:06.536Z,25.15
2018-07-01T14:09:33.537Z,25.13
2018-07-01T14:12:00.562Z,24.99
2018-07-01T14:14:27.565Z,25.02
2018-07-01T14:16:54.586Z,25.00
2018-07-01T14:19:21.585Z,25.09
2018-07-01T14:21:48.570Z,25.05
2018-07-01T14:24:15.529Z,25.01
2018-07-01T14:26:42.529Z,24.97
2018-07-01T14:29:09.557Z,24.86
2018-07-01T14:31:36.583Z,24.84
2018-07-01T14:34:04.437Z,24.84
2018-07-01T14:36:31.661Z,24.77
2018-07-01T14:38:58.650Z,24.79
2018-07-01T14:41:25.649Z,24.66
2018-07-01T14:43:52.901Z,24.59
2018-07-01T14:46:19.933Z,24.56
2018-07-01T14:48:46.959Z,24.55
2018-07-01T14:51:14.109Z,24.51
2018-07-01T14:53:41.132Z,24.47
2018-07-01T14:56:08.105Z,24.36
2018-07-01T14:58:35.170Z,24.34
2018-07-01T15:01:02.170Z,24.29
2018-07-01T15:03:29.187Z,24.35
2018-07-01T15:05:56.153Z,24.32
2018-07-01T15:08:23.130Z,24.27
2018-07-01T15:10:50.157Z,24.26
2018-07-01T15:13:17.339Z,24.22
2018-07-01T15:15:44.345Z,24.22
2018-07-01T15:18:11.337Z,24.21
2018-07-01T15:20:38.368Z,24.24
2018-07-01T15:23:05.377Z,24.17
2018-07-01T15:25:32.361Z,24.12
2018-07-01T15:27:59.348Z,24.08
2018-07-01T15:30:26.317Z,24.02
2018-07-01T15:32:53.298Z,23.96
2018-07-01T15:35:20.317Z,23.91
2018-07-01T15:37:47.311Z,23.86
2018-07-01T15:40:14.364Z,23.86
2018-07-01T15:42:41.393Z,23.82
2018-07-01T15:45:08.920Z,23.81
2018-07-01T15:47:35.933Z,23.75
2018-07-01T15:50:03.049Z,23.71
2018-07-01T15:52:30.135Z,23.70
2018-07-01T15:54:57.149Z,23.67
2018-07-01T15:57:24.142Z,23.63
2018-07-01T15:59:51.113Z,23.60
2018-07-01T16:02:18.101Z,23.63
2018-07-01T16:04:45.215Z,23.56
2018-07-01T16:07:12.237Z,23.54
2018-07-01T16:09:39.229Z,23.50
2018-07-01T16:12:06.273Z,23.36
2018-07-01T16:14:33.262Z,23.46
2018-07-01T16:17:00.477Z,23.41
2018-07-01T16:19:27.432Z,23.41
2018-07-01T16:21:54.689Z,23.43
2018-07-01T16:24:21.699Z,23.44
2018-07-01T16:26:53.905Z,23.35
2018-07-01T16:29:20.917Z,23.31
2018-07-01T16:31:47.881Z,23.31
2018-07-01T16:34:14.994Z,23.29
2018-07-01T16:36:41.973Z,23.31
2018-07-01T16:39:10.540Z,23.33
2018-07-01T16:41:37.524Z,23.32
2018-07-01T16:44:04.603Z,23.30
2018-07-01T16:46:32.109Z,23.25
2018-07-01T16:48:59.186Z,23.24
2018-07-01T16:51:26.186Z,23.22
2018-07-01T16:53:53.289Z,23.23
2018-07-01T16:56:20.249Z,23.21
2018-07-01T16:58:47.261Z,23.24
2018-07-01T17:01:14.257Z,23.27
2018-07-01T17:03:41.289Z,23.28
2018-07-01T17:06:08.312Z,23.29
2018-07-01T17:08:35.329Z,23.24
2018-07-01T17:11:02.307Z,23.24
2018-07-01T17:13:29.301Z,23.20
2018-07-01T17:15:56.594Z,23.19
2018-07-01T17:18:23.697Z,23.16
2018-07-01T17:20:50.695Z,23.12
2018-07-01T17:23:17.687Z,23.11
2018-07-01T17:25:51.161Z,23.04
2018-07-01T17:28:18.363Z,23.15
2018-07-01T17:30:45.351Z,23.18
2018-07-01T17:33:17.925Z,23.20
2018-07-01T17:35:44.930Z,23.20
2018-07-01T17:38:11.906Z,23.21
2018-07-01T17:40:38.997Z,23.27
2018-07-01T17:43:05.970Z,23.35
2018-07-01T17:45:32.976Z,23.38
2018-07-01T17:47:59.953Z,23.42
2018-07-01T17:50:27.145Z,23.46
2018-07-01T17:52:54.129Z,23.52
2018-07-01T17:55:21.121Z,23.67
2018-07-01T17:57:48.101Z,23.78
2018-07-01T18:00:15.125Z,23.90
2018-07-01T18:02:42.089Z,23.99
2018-07-01T18:05:09.074Z,24.14
2018-07-01T18:07:36.085Z,24.26
2018-07-01T18:10:03.117Z,24.34
2018-07-01T18:12:30.147Z,24.29
2018-07-01T18:14:57.333Z,24.38
2018-07-01T18:17:24.680Z,24.51
2018-07-01T18:19:52.041Z,24.58
2018-07-01T18:22:44.114Z,24.81
2018-07-01T18:25:01.545Z,24.81
2018-07-01T18:27:13.037Z,24.73
2018-07-01T18:29:40.025Z,24.85
2018-07-01T18:32:07.137Z,24.85
2018-07-01T18:34:34.158Z,24.61
2018-07-01T18:37:01.173Z,24.40
2018-07-01T18:39:28.222Z,24.07
2018-07-01T18:41:55.345Z,23.86
2018-07-01T18:44:22.353Z,23.61
2018-07-01T18:46:49.380Z,23.40
2018-07-01T18:49:16.367Z,23.24
2018-07-01T18:51:43.514Z,23.12
2018-07-01T18:54:10.504Z,22.96
2018-07-01T18:56:37.518Z,22.76
2018-07-01T18:59:04.594Z,22.63
2018-07-01T19:01:31.633Z,22.53
2018-07-01T19:03:58.633Z,22.42
2018-07-01T19:06:25.630Z,22.34
2018-07-01T19:08:52.605Z,22.23
2018-07-01T19:11:19.600Z,22.10
2018-07-01T19:13:46.587Z,21.98
2018-07-01T19:16:13.649Z,21.90
2018-07-01T19:18:40.628Z,21.85
2018-07-01T19:21:08.658Z,21.78
2018-07-01T19:23:35.894Z,21.72
2018-07-01T19:26:02.905Z,21.62
2018-07-01T19:28:29.873Z,21.56
2018-07-01T19:30:56.909Z,21.50
2018-07-01T19:33:23.893Z,21.41
2018-07-01T19:35:50.944Z,21.32
2018-07-01T19:38:17.912Z,21.27
2018-07-01T19:40:44.924Z,21.17
2018-07-01T19:43:11.957Z,21.12
2018-07-01T19:45:38.925Z,21.07
2018-07-01T19:48:05.949Z,21.01
2018-07-01T19:50:32.970Z,20.97
2018-07-01T19:52:59.942Z,20.92
2018-07-01T19:55:26.941Z,20.88
2018-07-01T19:57:54.022Z,20.84
2018-07-01T20:00:21.281Z,20.78
2018-07-01T20:02:48.209Z,20.73
2018-07-01T20:05:15.269Z,20.67
2018-07-01T20:07:42.312Z,20.62
2018-07-01T20:10:09.374Z,20.54
2018-07-01T20:12:36.333Z,20.45
2018-07-01T20:15:03.840Z,20.37
2018-07-01T20:17:30.893Z,20.28
2018-07-01T20:19:57.917Z,20.21
2018-07-01T20:22:25.121Z,20.14
2018-07-01T20:24:52.117Z,20.12
2018-07-01T20:27:19.237Z,20.10
2018-07-01T20:29:46.244Z,20.05
2018-07-01T20:32:13.241Z,20.02
2018-07-01T20:34:40.699Z,19.97
2018-07-01T20:37:07.815Z,19.90
2018-07-01T20:39:34.785Z,19.84
2018-07-01T20:42:02.010Z,19.76
2018-07-01T20:44:29.021Z,19.68
2018-07-01T20:46:56.005Z,19.64
2018-07-01T20:49:23.034Z,19.58
2018-07-01T20:51:50.301Z,19.55
2018-07-01T20:54:17.312Z,19.48
2018-07-01T20:56:44.706Z,19.44
2018-07-01T20:59:11.689Z,19.37
2018-07-01T21:01:38.674Z,19.32
2018-07-01T21:04:05.702Z,19.27
2018-07-01T21:06:32.701Z,19.22
2018-07-01T21:08:59.668Z,19.19
2018-07-01T21:11:26.825Z,19.15
2018-07-01T21:13:53.820Z,19.10
2018-07-01T21:16:20.833Z,19.08
2018-07-01T21:18:47.916Z,19.04
2018-07-01T21:21:15.233Z,18.98
2018-07-01T21:23:42.277Z,18.92
2018-07-01T21:26:09.281Z,18.87
2018-07-01T21:28:36.289Z,18.82
2018-07-01T21:31:03.277Z,18.76
2018-07-01T21:33:30.281Z,18.71
2018-07-01T21:35:57.565Z,18.68
2018-07-01T21:38:24.644Z,18.62
2018-07-01T21:40:51.613Z,18.54
2018-07-01T21:43:18.611Z,18.51
2018-07-01T21:45:45.617Z,18.46
2018-07-01T21:48:12.885Z,18.41
2018-07-01T21:50:39.900Z,18.31
2018-07-01T21:53:06.916Z,18.25
2018-07-01T21:55:33.901Z,18.23
2018-07-01T21:58:00.938Z,18.21
2018-07-01T22:00:31.624Z,18.18
2018-07-01T22:02:59.805Z,18.13
2018-07-01T22:05:26.808Z,18.09
2018-07-01T22:07:53.933Z,18.05
2018-07-01T22:10:32.953Z,17.98
2018-07-01T22:12:59.962Z,17.95
2018-07-01T22:15:38.599Z,17.92
2018-07-01T22:18:05.590Z,17.90
2018-07-01T22:20:32.573Z,17.85
2018-07-01T22:22:59.818Z,17.83
2018-07-01T22:25:27.033Z,17.77
2018-07-01T22:27:54.051Z,17.70
2018-07-01T22:30:21.065Z,17.64
2018-07-01T22:32:48.232Z,17.62
2018-07-01T22:35:15.221Z,17.57
2018-07-01T22:37:42.264Z,17.53
2018-07-01T22:40:09.301Z,17.50
2018-07-01T22:42:36.292Z,17.48
2018-07-01T22:45:03.425Z,17.43
2018-07-01T22:47:30.428Z,17.39
2018-07-01T22:49:57.404Z,17.35
2018-07-01T22:52:24.413Z,17.33
2018-07-01T22:54:51.421Z,17.33
2018-07-01T22:57:18.445Z,17.30
2018-07-01T22:59:45.433Z,17.27
2018-07-01T23:02:50.969Z,17.23
2018-07-01T23:05:18.245Z,17.16
2018-07-01T23:07:45.817Z,17.13
2018-07-01T23:10:12.857Z,17.10
2018-07-01T23:12:40.417Z,17.07
2018-07-01T23:15:07.441Z,17.03
2018-07-01T23:17:34.429Z,17.00
2018-07-01T23:20:01.442Z,16.97
2018-07-01T23:22:28.501Z,16.95
2018-07-01T23:24:55.576Z,16.91
2018-07-01T23:27:22.537Z,16.87
2018-07-01T23:29:49.532Z,16.84
2018-07-01T23:32:16.521Z,16.82
2018-07-01T23:34:43.558Z,16.79
2018-07-01T23:37:10.576Z,16.76
2018-07-01T23:39:37.741Z,16.73
2018-07-01T23:42:04.737Z,16.72
2018-07-01T23:44:31.745Z,16.70
2018-07-01T23:46:58.739Z,16.66
2018-07-01T23:49:25.792Z,16.61
2018-07-01T23:51:52.838Z,16.57
2018-07-01T23:54:19.845Z,16.51
2018-07-01T23:56:46.841Z,16.47
2018-07-01T23:59:13.889Z,16.42
